createdAt,value
2018-06-25T00:02:02.427Z,23.80
2018-06-25T00:04:39.386Z,23.80
2018-06-25T00:07:17.461Z,24.00
2018-06-25T00:09:55.617Z,24.10
2018-06-25T00:12:32.427Z,24.00
2018-06-25T00:15:09.167Z,24.00
2018-06-25T00:17:46.824Z,23.90
2018-06-25T00:20:23.652Z,23.90
2018-06-25T00:23:00.619Z,23.80
2018-06-25T00:25:37.651Z,23.80
2018-06-25T00:28:14.650Z,23.90
2018-06-25T00:30:52.723Z,23.80
2018-06-25T00:33:29.567Z,23.80
2018-06-25T00:36:06.257Z,23.80
2018-06-25T00:38:42.887Z,23.80
2018-06-25T00:41:19.708Z,23.90
2018-06-25T00:43:56.797Z,23.90
2018-06-25T00:49:11.882Z,24.10
2018-06-25T00:51:48.535Z,24.00
2018-06-25T00:54:25.435Z,24.10
2018-06-25T00:57:02.489Z,24.20
2018-06-25T00:59:50.264Z,24.10
2018-06-25T01:02:27.380Z,24.00
2018-06-25T01:05:04.411Z,24.10
2018-06-25T01:07:41.302Z,24.10
2018-06-25T01:10:18.900Z,24.00
2018-06-25T01:12:56.230Z,24.10
2018-06-25T01:15:33.007Z,24.00
2018-06-25T01:18:10.037Z,24.10
2018-06-25T01:20:47.528Z,24.10
2018-06-25T01:23:24.693Z,24.10
2018-06-25T01:26:01.822Z,24.10
2018-06-25T01:28:38.888Z,24.20
2018-06-25T01:31:16.659Z,24.40
2018-06-25T01:33:54.093Z,24.40
2018-06-25T01:36:31.509Z,24.30
2018-06-25T01:39:10.583Z,24.30
2018-06-25T01:41:47.772Z,24.30
2018-06-25T01:44:24.679Z,24.40
2018-06-25T01:47:01.489Z,24.30
2018-06-25T01:49:38.518Z,24.50
2018-06-25T01:52:15.185Z,24.70
2018-06-25T01:54:52.199Z,24.70
2018-06-25T01:57:28.961Z,24.70
2018-06-25T02:00:06.546Z,24.60
2018-06-25T02:02:43.774Z,24.60
2018-06-25T02:05:20.632Z,24.60
2018-06-25T02:07:57.585Z,24.60
2018-06-25T02:10:34.621Z,24.50
2018-06-25T02:13:11.389Z,24.20
2018-06-25T02:15:48.348Z,24.20
2018-06-25T02:18:25.018Z,24.10
2018-06-25T02:21:03.064Z,24.00
2018-06-25T02:23:40.402Z,23.90
2018-06-25T02:26:17.437Z,24.00
2018-06-25T02:28:54.002Z,24.20
2018-06-25T02:31:31.010Z,24.10
2018-06-25T02:36:43.854Z,24.00
2018-06-25T02:39:21.251Z,24.10
2018-06-25T02:41:58.289Z,24.20
2018-06-25T02:44:34.993Z,24.30
2018-06-25T02:47:11.893Z,24.20
2018-06-25T02:49:48.639Z,24.30
2018-06-25T02:52:25.792Z,24.40
2018-06-25T02:55:02.577Z,24.40
2018-06-25T02:57:39.674Z,24.30
2018-06-25T03:00:16.865Z,24.40
2018-06-25T03:05:30.304Z,24.40
2018-06-25T03:08:07.246Z,24.30
2018-06-25T03:10:43.854Z,24.30
2018-06-25T03:13:20.447Z,24.30
2018-06-25T03:15:57.094Z,24.10
2018-06-25T03:18:34.059Z,24.00
2018-06-25T03:21:10.948Z,24.00
2018-06-25T03:23:47.731Z,24.10
2018-06-25T03:29:01.325Z,24.20
2018-06-25T03:31:38.147Z,24.20
2018-06-25T03:34:14.879Z,24.10
2018-06-25T03:36:51.696Z,24.20
2018-06-25T03:39:28.633Z,24.00
2018-06-25T03:42:05.824Z,24.00
2018-06-25T03:44:42.394Z,23.90
2018-06-25T03:47:19.341Z,23.90
2018-06-25T03:49:56.196Z,23.90
2018-06-25T03:52:33.038Z,24.10
2018-06-25T03:55:10.117Z,24.20
2018-06-25T03:57:46.942Z,24.00
2018-06-25T04:00:24.224Z,24.00
2018-06-25T04:03:00.894Z,24.00
2018-06-25T04:05:37.813Z,24.10
2018-06-25T04:08:14.611Z,24.10
2018-06-25T04:10:51.140Z,24.00
2018-06-25T04:13:27.959Z,24.00
2018-06-25T04:16:04.875Z,23.90
2018-06-25T04:18:41.829Z,23.80
2018-06-25T04:21:18.611Z,23.90
2018-06-25T04:23:55.427Z,23.90
2018-06-25T04:26:32.910Z,23.90
2018-06-25T04:29:10.121Z,24.00
2018-06-25T04:31:47.191Z,23.90
2018-06-25T04:34:24.104Z,23.90
2018-06-25T04:37:01.021Z,24.10
2018-06-25T04:39:38.109Z,24.20
2018-06-25T04:42:15.286Z,24.30
2018-06-25T04:44:51.848Z,24.30
2018-06-25T04:47:28.826Z,24.20
2018-06-25T04:50:05.731Z,24.10
2018-06-25T04:52:42.663Z,24.10
2018-06-25T04:55:19.280Z,24.30
2018-06-25T04:57:56.256Z,24.30
2018-06-25T05:00:33.075Z,24.30
2018-06-25T05:03:10.278Z,24.40
2018-06-25T05:05:46.804Z,24.40
2018-06-25T05:08:23.679Z,24.40
2018-06-25T05:11:00.792Z,24.40
2018-06-25T05:16:44.419Z,24.40
2018-06-25T05:19:20.989Z,24.40
2018-06-25T05:21:59.351Z,24.40
2018-06-25T05:24:39.728Z,24.40
2018-06-25T05:27:16.420Z,24.40
2018-06-25T05:29:53.179Z,24.40
2018-06-25T05:32:30.020Z,24.30
2018-06-25T05:35:06.648Z,24.40
2018-06-25T05:37:43.417Z,24.60
2018-06-25T05:40:20.393Z,24.70
2018-06-25T05:42:57.189Z,24.70
2018-06-25T05:45:34.120Z,24.80
2018-06-25T05:48:11.409Z,24.80
2018-06-25T05:50:48.449Z,24.90
2018-06-25T05:53:25.200Z,25.00
2018-06-25T05:56:02.359Z,24.90
2018-06-25T05:58:39.145Z,24.90
2018-06-25T06:01:16.112Z,24.80
2018-06-25T06:03:53.196Z,24.70
2018-06-25T06:06:29.968Z,24.90
2018-06-25T06:09:09.366Z,25.00
2018-06-25T06:11:46.311Z,25.00
2018-06-25T06:14:23.328Z,24.90
2018-06-25T06:17:05.692Z,25.00
2018-06-25T06:19:42.596Z,25.00
2018-06-25T06:22:19.344Z,25.00
2018-06-25T06:24:56.189Z,25.00
2018-06-25T06:27:33.442Z,24.90
2018-06-25T06:30:10.995Z,24.90
2018-06-25T06:32:48.337Z,24.90
2018-06-25T06:35:25.104Z,25.00
2018-06-25T06:38:02.243Z,25.20
2018-06-25T06:40:39.080Z,25.30
2018-06-25T06:43:16.969Z,25.30
2018-06-25T06:45:54.863Z,25.40
2018-06-25T06:48:31.760Z,25.40
2018-06-25T06:51:08.725Z,25.40
2018-06-25T06:53:45.580Z,25.30
2018-06-25T06:56:22.846Z,25.40
2018-06-25T06:58:59.449Z,25.50
2018-06-25T07:01:36.339Z,25.50
2018-06-25T07:04:13.435Z,25.50
2018-06-25T07:06:50.428Z,25.30
2018-06-25T07:09:27.451Z,25.20
2018-06-25T07:12:05.169Z,25.20
2018-06-25T07:14:42.784Z,25.00
2018-06-25T07:17:19.797Z,24.80
2018-06-25T07:23:00.034Z,24.80
2018-06-25T07:25:37.077Z,24.90
2018-06-25T07:28:14.571Z,25.70
2018-06-25T07:30:52.186Z,26.60
2018-06-25T07:33:29.433Z,27.00
2018-06-25T07:36:06.915Z,27.60
2018-06-25T07:38:44.234Z,27.80
2018-06-25T07:41:21.765Z,27.90
2018-06-25T07:43:58.445Z,28.50
2018-06-25T07:46:35.298Z,29.10
2018-06-25T07:49:12.184Z,29.50
2018-06-25T07:51:49.145Z,29.80
2018-06-25T07:54:26.247Z,29.70
2018-06-25T07:57:02.829Z,30.00
2018-06-25T07:59:40.062Z,30.10
2018-06-25T08:02:16.855Z,30.00
2018-06-25T08:04:53.733Z,30.40
2018-06-25T08:07:30.515Z,30.50
2018-06-25T08:10:07.483Z,31.10
2018-06-25T08:12:44.551Z,30.90
2018-06-25T08:15:21.496Z,30.60
2018-06-25T08:17:58.301Z,30.80
2018-06-25T08:20:35.742Z,31.10
2018-06-25T08:23:13.068Z,31.10
2018-06-25T08:25:50.051Z,31.50
2018-06-25T08:28:26.669Z,31.20
2018-06-25T08:33:40.335Z,31.10
2018-06-25T08:36:17.458Z,31.10
2018-06-25T08:38:54.388Z,30.70
2018-06-25T08:41:32.071Z,31.10
2018-06-25T08:44:09.843Z,31.20
2018-06-25T08:46:47.656Z,31.20
2018-06-25T08:49:24.291Z,31.00
2018-06-25T08:52:01.288Z,31.40
2018-06-25T08:54:38.309Z,31.70
2018-06-25T08:57:15.492Z,31.60
2018-06-25T08:59:53.769Z,31.00
2018-06-25T09:02:31.012Z,31.30
2018-06-25T09:05:07.649Z,32.00
2018-06-25T09:07:44.697Z,31.10
2018-06-25T09:10:21.620Z,31.90
2018-06-25T09:12:58.628Z,31.30
2018-06-25T09:15:35.770Z,31.60
2018-06-25T09:18:13.344Z,32.00
2018-06-25T09:20:50.090Z,32.20
2018-06-25T09:23:44.918Z,32.40
2018-06-25T09:26:21.614Z,32.50
2018-06-25T09:28:58.812Z,31.90
2018-06-25T09:31:35.579Z,31.90
2018-06-25T09:34:17.109Z,32.30
2018-06-25T09:36:54.576Z,32.10
2018-06-25T09:39:32.116Z,32.30
2018-06-25T09:42:08.997Z,32.60
2018-06-25T09:44:46.262Z,32.50
2018-06-25T09:47:22.973Z,32.10
2018-06-25T09:50:00.038Z,32.10
2018-06-25T09:52:36.726Z,32.00
2018-06-25T09:55:13.530Z,32.30
2018-06-25T09:57:50.775Z,31.70
2018-06-25T10:00:32.611Z,32.20
2018-06-25T10:03:09.330Z,32.20
2018-06-25T10:05:52.826Z,32.10
2018-06-25T10:08:30.250Z,32.90
2018-06-25T10:11:07.169Z,33.00
2018-06-25T10:13:44.176Z,32.50
2018-06-25T10:16:21.804Z,32.20
2018-06-25T10:21:35.027Z,32.40
2018-06-25T10:24:12.083Z,31.70
2018-06-25T10:26:49.022Z,31.80
2018-06-25T10:29:25.778Z,31.90
2018-06-25T10:32:02.571Z,32.10
2018-06-25T10:34:40.549Z,32.80
2018-06-25T10:37:21.297Z,33.10
2018-06-25T10:39:58.033Z,33.50
2018-06-25T10:42:35.330Z,33.30
2018-06-25T10:45:12.264Z,32.70
2018-06-25T10:47:50.056Z,33.20
2018-06-25T10:50:26.879Z,33.00
2018-06-25T10:53:04.258Z,33.20
2018-06-25T10:55:41.776Z,33.50
2018-06-25T10:58:18.771Z,33.90
2018-06-25T11:00:55.825Z,34.80
2018-06-25T11:06:10.221Z,34.30
2018-06-25T11:08:47.216Z,34.10
2018-06-25T11:11:24.014Z,33.60
2018-06-25T11:16:37.854Z,33.50
2018-06-25T11:19:15.775Z,33.70
2018-06-25T11:24:35.481Z,33.50
2018-06-25T11:27:12.268Z,33.80
2018-06-25T11:29:48.839Z,33.40
2018-06-25T11:32:25.718Z,33.20
2018-06-25T11:35:02.639Z,33.40
2018-06-25T11:37:40.476Z,34.20
2018-06-25T11:40:17.358Z,33.60
2018-06-25T11:42:54.174Z,33.70
2018-06-25T11:45:31.311Z,34.00
2018-06-25T11:48:07.943Z,33.50
2018-06-25T11:50:44.857Z,33.60
2018-06-25T11:53:22.205Z,33.20
2018-06-25T11:55:58.802Z,33.60
2018-06-25T11:58:35.826Z,34.00
2018-06-25T12:01:12.797Z,34.30
2018-06-25T12:03:49.555Z,34.10
2018-06-25T12:06:26.546Z,34.40
2018-06-25T12:09:03.480Z,34.40
2018-06-25T12:11:41.475Z,34.00
2018-06-25T12:14:18.219Z,34.30
2018-06-25T12:16:56.272Z,34.10
2018-06-25T12:19:33.181Z,33.60
2018-06-25T12:22:10.593Z,33.80
2018-06-25T12:24:47.898Z,33.80
2018-06-25T12:27:25.550Z,33.40
2018-06-25T12:30:02.772Z,33.20
2018-06-25T12:32:40.292Z,33.00
2018-06-25T12:35:17.281Z,33.50
2018-06-25T12:37:55.023Z,33.50
2018-06-25T12:40:32.203Z,33.80
2018-06-25T12:43:08.808Z,34.20
2018-06-25T12:45:46.076Z,33.90
2018-06-25T12:48:23.355Z,34.00
2018-06-25T12:51:00.500Z,34.00
2018-06-25T12:53:37.317Z,34.30
2018-06-25T12:56:13.838Z,34.00
2018-06-25T12:58:50.795Z,33.70
2018-06-25T13:01:28.147Z,33.60
2018-06-25T13:04:05.007Z,32.60
2018-06-25T13:06:41.880Z,30.80
2018-06-25T13:09:18.729Z,29.70
2018-06-25T13:11:55.482Z,28.80
2018-06-25T13:14:32.522Z,27.90
2018-06-25T13:17:09.382Z,27.70
2018-06-25T13:19:46.185Z,27.20
2018-06-25T13:22:22.774Z,27.30
2018-06-25T13:30:13.069Z,27.10
2018-06-25T13:32:49.976Z,26.80
2018-06-25T13:35:26.966Z,26.50
2018-06-25T13:38:03.915Z,26.60
2018-06-25T13:40:40.742Z,26.40
2018-06-25T13:43:17.586Z,26.60
2018-06-25T13:45:54.928Z,26.90
2018-06-25T13:48:32.188Z,27.20
2018-06-25T13:51:09.387Z,27.50
2018-06-25T13:53:46.464Z,27.30
2018-06-25T13:56:24.331Z,27.00
2018-06-25T13:59:01.617Z,26.80
2018-06-25T14:01:38.927Z,26.80
2018-06-25T14:04:16.447Z,26.90
2018-06-25T14:06:54.381Z,27.10
2018-06-25T14:09:31.082Z,27.00
2018-06-25T14:12:08.364Z,26.90
2018-06-25T14:14:46.232Z,27.00
2018-06-25T14:17:23.649Z,26.90
2018-06-25T14:20:00.827Z,27.00
2018-06-25T14:22:38.327Z,26.90
2018-06-25T14:25:15.158Z,26.70
2018-06-25T14:27:57.262Z,26.60
2018-06-25T14:30:38.884Z,26.80
2018-06-25T14:33:16.931Z,27.00
2018-06-25T14:35:54.953Z,27.00
2018-06-25T14:38:32.640Z,27.10
2018-06-25T14:41:09.277Z,27.00
2018-06-25T14:43:46.341Z,27.00
2018-06-25T14:46:23.505Z,28.20
2018-06-25T14:49:01.262Z,27.20
2018-06-25T14:54:14.952Z,26.90
2018-06-25T14:56:52.399Z,26.70
2018-06-25T14:59:29.513Z,27.00
2018-06-25T15:02:06.143Z,26.80
2018-06-25T15:04:42.815Z,26.70
2018-06-25T15:07:19.913Z,26.60
2018-06-25T15:09:56.725Z,26.60
2018-06-25T15:12:33.631Z,26.80
2018-06-25T15:15:10.783Z,26.80
2018-06-25T15:17:48.066Z,26.90
2018-06-25T15:20:24.878Z,26.90
2018-06-25T15:23:01.620Z,26.60
2018-06-25T15:25:38.711Z,26.50
2018-06-25T15:28:15.709Z,26.30
2018-06-25T15:30:52.481Z,26.20
2018-06-25T15:33:29.251Z,26.20
2018-06-25T15:36:06.538Z,26.20
2018-06-25T15:38:44.529Z,26.10
2018-06-25T15:41:22.176Z,26.20
2018-06-25T15:43:58.659Z,26.10
2018-06-25T15:46:35.905Z,26.00
2018-06-25T15:49:12.668Z,26.10
2018-06-25T15:51:49.341Z,26.00
2018-06-25T15:54:26.371Z,25.90
2018-06-25T15:59:40.093Z,26.00
2018-06-25T16:02:16.783Z,26.00
2018-06-25T16:04:53.900Z,25.90
2018-06-25T16:07:30.897Z,25.50
2018-06-25T16:10:07.385Z,25.30
2018-06-25T16:12:44.518Z,25.20
2018-06-25T16:15:21.244Z,25.40
2018-06-25T16:17:58.521Z,25.50
2018-06-25T16:20:34.920Z,25.40
2018-06-25T16:23:12.098Z,25.50
2018-06-25T16:25:49.757Z,25.70
2018-06-25T16:28:26.850Z,25.70
2018-06-25T16:31:03.512Z,25.40
2018-06-25T16:33:40.408Z,25.40
2018-06-25T16:36:17.200Z,25.50
2018-06-25T16:38:54.163Z,25.50
2018-06-25T16:41:30.933Z,25.40
2018-06-25T16:44:07.759Z,25.30
2018-06-25T16:46:44.797Z,25.30
2018-06-25T16:49:21.442Z,25.20
2018-06-25T16:51:58.508Z,25.30
2018-06-25T16:54:35.140Z,25.20
2018-06-25T16:57:12.090Z,25.10
2018-06-25T16:59:49.234Z,25.00
2018-06-25T17:02:25.820Z,25.00
2018-06-25T17:05:02.781Z,25.00
2018-06-25T17:07:39.752Z,24.80
2018-06-25T17:10:16.467Z,24.90
2018-06-25T17:12:53.070Z,25.00
2018-06-25T17:15:30.157Z,25.00
2018-06-25T17:18:06.994Z,25.10
2018-06-25T17:20:44.066Z,25.10
2018-06-25T17:23:21.053Z,25.00
2018-06-25T17:25:57.933Z,25.00
2018-06-25T17:28:34.813Z,24.90
2018-06-25T17:31:11.663Z,24.80
2018-06-25T17:33:48.449Z,24.80
2018-06-25T17:36:25.351Z,25.20
2018-06-25T17:39:02.695Z,25.20
2018-06-25T17:41:40.217Z,25.30
2018-06-25T17:44:18.056Z,25.30
2018-06-25T17:46:55.458Z,25.20
2018-06-25T17:49:32.673Z,25.20
2018-06-25T17:52:09.571Z,25.00
2018-06-25T17:54:46.503Z,25.00
2018-06-25T17:57:23.435Z,24.80
2018-06-25T18:00:00.056Z,24.80
2018-06-25T18:02:37.712Z,24.70
2018-06-25T18:05:14.852Z,24.60
2018-06-25T18:07:51.691Z,24.70
2018-06-25T18:13:05.258Z,24.70
2018-06-25T18:15:42.359Z,24.60
2018-06-25T18:18:20.213Z,24.60
2018-06-25T18:20:58.368Z,24.60
2018-06-25T18:23:35.883Z,24.50
2018-06-25T18:26:13.185Z,24.60
2018-06-25T18:28:50.509Z,24.30
2018-06-25T18:31:26.974Z,24.40
2018-06-25T18:34:04.043Z,24.60
2018-06-25T18:36:41.507Z,24.60
2018-06-25T18:39:18.284Z,24.60
2018-06-25T18:41:55.354Z,24.60
2018-06-25T18:44:32.595Z,24.50
2018-06-25T18:47:09.228Z,24.70
2018-06-25T18:49:46.475Z,25.80
2018-06-25T18:52:23.277Z,24.70
2018-06-25T18:55:00.631Z,24.70
2018-06-25T18:57:37.885Z,24.60
2018-06-25T19:00:14.806Z,24.40
2018-06-25T19:02:51.526Z,24.40
2018-06-25T19:05:28.469Z,24.20
2018-06-25T19:08:05.071Z,24.20
2018-06-25T19:10:42.052Z,24.30
2018-06-25T19:13:19.237Z,24.20
2018-06-25T19:15:56.217Z,24.20
2018-06-25T19:18:32.978Z,24.20
2018-06-25T19:21:09.697Z,24.30
2018-06-25T19:23:46.518Z,24.40
2018-06-25T19:26:23.447Z,24.30
2018-06-25T19:29:00.894Z,24.20
2018-06-25T19:34:15.263Z,24.00
2018-06-25T19:36:52.501Z,23.80
2018-06-25T19:39:28.988Z,23.80
2018-06-25T19:42:06.148Z,23.90
2018-06-25T19:44:42.719Z,23.90
2018-06-25T19:47:19.913Z,23.90
2018-06-25T19:49:56.806Z,24.00
2018-06-25T19:52:33.611Z,24.00
2018-06-25T19:55:11.063Z,24.00
2018-06-25T19:57:48.403Z,24.00
2018-06-25T20:00:25.359Z,23.90
2018-06-25T20:03:02.041Z,23.90
2018-06-25T20:05:39.132Z,23.80
2018-06-25T20:08:17.256Z,23.70
2018-06-25T20:13:58.190Z,23.60
2018-06-25T20:16:35.376Z,23.60
2018-06-25T20:19:12.242Z,23.60
2018-06-25T20:21:49.241Z,23.70
2018-06-25T20:24:25.991Z,23.60
2018-06-25T20:27:03.585Z,23.70
2018-06-25T20:29:40.382Z,23.70
2018-06-25T20:35:21.379Z,23.80
2018-06-25T20:37:58.503Z,23.80
2018-06-25T20:40:37.298Z,23.80
2018-06-25T20:43:14.294Z,23.80
2018-06-25T20:45:51.974Z,23.80
2018-06-25T20:51:33.048Z,23.90
2018-06-25T20:54:10.861Z,23.80
2018-06-25T20:56:47.900Z,23.80
2018-06-25T20:59:24.392Z,23.80
2018-06-25T21:02:01.902Z,23.80
2018-06-25T21:04:40.178Z,23.80
2018-06-25T21:07:18.518Z,23.80
2018-06-25T21:09:56.114Z,23.80
2018-06-25T21:12:33.150Z,24.00
2018-06-25T21:15:09.813Z,24.00
2018-06-25T21:17:48.337Z,23.90
2018-06-25T21:20:25.893Z,23.90
2018-06-25T21:23:03.821Z,23.80
2018-06-25T21:25:41.051Z,24.10
2018-06-25T21:28:18.372Z,23.90
2018-06-25T21:30:55.363Z,24.00
2018-06-25T21:33:32.520Z,24.20
2018-06-25T21:36:09.146Z,24.20
2018-06-25T21:38:46.082Z,24.10
2018-06-25T21:43:59.927Z,23.90
2018-06-25T21:46:36.908Z,24.00
2018-06-25T21:49:13.735Z,24.20
2018-06-25T21:51:50.321Z,24.20
2018-06-25T21:54:27.461Z,24.20
2018-06-25T21:59:41.003Z,24.40
2018-06-25T22:02:17.914Z,24.30
2018-06-25T22:04:54.991Z,24.30
2018-06-25T22:07:32.359Z,24.40
2018-06-25T22:10:09.775Z,24.40
2018-06-25T22:12:46.862Z,24.30
2018-06-25T22:15:23.726Z,24.20
2018-06-25T22:18:00.588Z,24.40
2018-06-25T22:20:38.103Z,24.50
2018-06-25T22:23:16.533Z,24.40
2018-06-25T22:25:53.271Z,24.50
2018-06-25T22:28:30.106Z,24.60
2018-06-25T22:31:07.118Z,24.60
2018-06-25T22:33:43.890Z,24.60
2018-06-25T22:36:20.833Z,24.50
2018-06-25T22:38:58.210Z,24.60
2018-06-25T22:41:36.553Z,24.70
2018-06-25T22:44:14.434Z,24.80
2018-06-25T22:46:52.346Z,24.80
2018-06-25T22:49:28.920Z,24.80
2018-06-25T22:52:06.458Z,24.50
2018-06-25T22:54:43.034Z,24.60
2018-06-25T22:57:20.328Z,24.70
2018-06-25T22:59:57.218Z,24.80
2018-06-25T23:02:34.269Z,24.80
2018-06-25T23:05:11.098Z,24.80
2018-06-25T23:07:48.122Z,24.80
2018-06-25T23:10:25.093Z,24.70
2018-06-25T23:13:01.835Z,24.70
2018-06-25T23:15:39.005Z,24.50
2018-06-25T23:18:15.735Z,24.40
2018-06-25T23:20:52.813Z,24.60
2018-06-25T23:23:29.507Z,24.70
2018-06-25T23:26:06.636Z,24.80
2018-06-25T23:28:43.763Z,24.60
2018-06-25T23:31:20.441Z,24.70
2018-06-25T23:33:57.736Z,24.70
2018-06-25T23:36:34.695Z,24.70
2018-06-25T23:39:12.765Z,24.60
2018-06-25T23:41:49.542Z,24.60
2018-06-25T23:44:26.522Z,24.50
2018-06-25T23:47:03.307Z,24.50
2018-06-25T23:49:41.561Z,24.50
2018-06-25T23:52:18.818Z,24.50
2018-06-25T23:54:55.595Z,24.30
2018-06-25T23:57:32.998Z,24.20
